Time;durP1;ratioP1;P1;durP2;ratioP2;P2;SDS_P1;SDS_P2;PMS_P1;PMS_P2;Temp;Humidity;BMP_temperature;BMP_pressure;BME280_temperature;BME280_humidity;BME280_pressure;Samples;Min_cycle;Max_cycle;Signal;HPM_P1;HPM_P2
2021/09/14 00:01:11;;;;;;;7.20;6.50;;;14.00;99.90;;;;;;5033561;28;20191;-77
2021/09/14 00:03:36;;;;;;;7.93;6.37;;;14.00;99.90;;;;;;5001002;28;20196;-78
2021/09/14 00:06:02;;;;;;;8.27;6.17;;;13.90;99.90;;;;;;5032615;28;20282;-77
2021/09/14 00:08:27;;;;;;;8.27;6.70;;;13.90;99.90;;;;;;5033302;28;20203;-77
2021/09/14 00:10:53;;;;;;;9.40;6.67;;;14.00;99.90;;;;;;5033449;28;20176;-77
2021/09/14 00:13:19;;;;;;;9.00;6.70;;;13.90;99.90;;;;;;5017667;28;20187;-78
2021/09/14 00:15:44;;;;;;;8.53;7.00;;;13.90;99.90;;;;;;5017284;28;20211;-78
2021/09/14 00:18:10;;;;;;;7.73;6.73;;;13.90;99.90;;;;;;5000791;28;20274;-78
2021/09/14 00:20:35;;;;;;;7.30;6.50;;;13.80;99.90;;;;;;5000629;28;20188;-78
2021/09/14 00:23:02;;;;;;;8.70;6.57;;;13.80;99.90;;;;;;5017437;28;20266;-77
2021/09/14 00:25:28;;;;;;;9.30;7.20;;;13.80;99.90;;;;;;5000553;28;20226;-78
2021/09/14 00:27:54;;;;;;;8.03;6.90;;;13.80;99.90;;;;;;5033702;28;20207;-78
2021/09/14 00:30:19;;;;;;;9.63;7.20;;;13.80;99.90;;;;;;5017120;28;20203;-77
2021/09/14 00:32:45;;;;;;;10.30;7.23;;;13.80;99.90;;;;;;5001208;28;20179;-77
2021/09/14 00:35:10;;;;;;;10.07;7.03;;;13.80;99.90;;;;;;5016744;28;20239;-78
2021/09/14 00:37:36;;;;;;;12.43;8.20;;;13.80;99.90;;;;;;5018044;28;20218;-77
2021/09/14 00:40:01;;;;;;;9.20;6.80;;;13.80;99.90;;;;;;5019407;28;20188;-78
2021/09/14 00:42:27;;;;;;;7.93;7.10;;;13.80;99.90;;;;;;5018696;28;20184;-77
2021/09/14 00:44:53;;;;;;;10.87;7.40;;;13.90;99.90;;;;;;5017787;28;20194;-78
2021/09/14 00:47:18;;;;;;;9.80;7.70;;;13.80;99.90;;;;;;5001098;28;20199;-78
2021/09/14 00:49:44;;;;;;;8.37;7.17;;;13.70;99.90;;;;;;5033898;28;20183;-77
2021/09/14 00:52:09;;;;;;;8.87;7.23;;;13.70;99.90;;;;;;5000046;28;20190;-78
2021/09/14 00:54:38;;;;;;;11.20;6.80;;;13.70;99.90;;;;;;5016628;28;20233;-78
2021/09/14 00:57:04;;;;;;;9.73;7.47;;;13.70;99.90;;;;;;5032588;28;20198;-77
2021/09/14 00:59:30;;;;;;;12.37;7.20;;;13.70;99.90;;;;;;4999944;28;20179;-77
2021/09/14 01:01:56;;;;;;;9.27;7.37;;;13.70;99.90;;;;;;5015907;28;20175;-78
2021/09/14 01:04:21;;;;;;;8.10;7.30;;;13.70;99.90;;;;;;5032576;28;20176;-77
2021/09/14 01:06:47;;;;;;;10.23;7.43;;;13.60;99.90;;;;;;5032601;28;20614;-78
2021/09/14 01:09:12;;;;;;;10.33;7.57;;;13.60;99.90;;;;;;5031855;28;20223;-78
2021/09/14 01:11:39;;;;;;;10.13;7.43;;;13.60;99.90;;;;;;5015331;28;20213;-77
2021/09/14 01:14:06;;;;;;;11.43;7.37;;;13.50;99.90;;;;;;5032321;28;20267;-77
2021/09/14 01:16:32;;;;;;;10.33;6.93;;;13.40;99.90;;;;;;5015448;28;20246;-77
2021/09/14 01:18:59;;;;;;;9.60;7.47;;;13.40;99.90;;;;;;5032137;28;20183;-77
2021/09/14 01:21:25;;;;;;;8.83;7.30;;;13.40;99.90;;;;;;5031849;28;20195;-77
2021/09/14 01:23:51;;;;;;;9.53;7.43;;;13.40;99.90;;;;;;5032154;28;20663;-77
2021/09/14 01:26:17;;;;;;;7.90;6.87;;;13.30;99.90;;;;;;5031562;28;20653;-77
2021/09/14 01:28:43;;;;;;;8.90;7.37;;;13.30;99.90;;;;;;5014871;28;20294;-78
2021/09/14 01:31:08;;;;;;;10.27;7.47;;;13.30;99.90;;;;;;5031461;28;20218;-77
2021/09/14 01:33:34;;;;;;;10.47;7.50;;;13.30;99.90;;;;;;5031506;28;20233;-77
2021/09/14 01:36:00;;;;;;;11.60;8.10;;;13.20;99.90;;;;;;5015167;28;20245;-77
2021/09/14 01:38:25;;;;;;;11.30;7.83;;;13.10;99.90;;;;;;4998988;28;20194;-77
2021/09/14 01:40:51;;;;;;;8.57;7.67;;;13.20;99.90;;;;;;5015427;28;20206;-77
2021/09/14 01:43:18;;;;;;;8.83;7.50;;;13.20;99.90;;;;;;5032143;28;20557;-77
2021/09/14 01:45:43;;;;;;;9.77;7.57;;;13.20;99.90;;;;;;5015352;28;20203;-77
2021/09/14 01:48:09;;;;;;;10.13;8.03;;;13.10;99.90;;;;;;5015774;28;20334;-77
2021/09/14 01:50:35;;;;;;;9.43;7.63;;;13.10;99.90;;;;;;5031351;28;20176;-78
2021/09/14 01:53:01;;;;;;;9.93;7.97;;;13.10;99.90;;;;;;5015169;28;20657;-77
2021/09/14 01:55:27;;;;;;;10.23;7.87;;;13.20;99.90;;;;;;4998968;28;20191;-77
2021/09/14 01:57:54;;;;;;;11.97;8.07;;;13.10;99.90;;;;;;5015412;28;20210;-77
2021/09/14 02:00:28;;;;;;;10.00;8.50;;;13.00;99.90;;;;;;5014554;28;20179;-77
2021/09/14 02:08:03;;;;;;;11.93;9.70;;;13.10;99.90;;;;;;5031162;28;20207;-77
2021/09/14 02:58:44;;;;;;;9.70;8.23;;;12.70;99.90;;;;;;5017433;28;20616;-77
2021/09/14 03:01:13;;;;;;;13.27;9.03;;;12.70;99.90;;;;;;5018498;28;20234;-77
2021/09/14 03:03:42;;;;;;;11.80;8.43;;;12.70;99.90;;;;;;5000921;28;20179;-77
2021/09/14 03:06:08;;;;;;;11.47;8.63;;;12.60;99.90;;;;;;5017353;28;20203;-77
2021/09/14 03:08:36;;;;;;;12.20;8.73;;;12.60;99.90;;;;;;5017860;28;20565;-77
2021/09/14 03:11:11;;;;;;;14.70;9.07;;;12.60;99.90;;;;;;5017358;28;20167;-77
2021/09/14 03:13:37;;;;;;;11.63;8.67;;;12.50;99.90;;;;;;5017818;28;20179;-78
2021/09/14 03:16:06;;;;;;;11.87;9.10;;;12.50;99.90;;;;;;5017793;28;20752;-77
2021/09/14 03:18:32;;;;;;;12.10;8.80;;;12.50;99.90;;;;;;5018680;28;20176;-77
2021/09/14 03:20:57;;;;;;;15.70;8.93;;;12.50;99.90;;;;;;5018252;28;20175;-77
2021/09/14 03:23:23;;;;;;;12.63;9.57;;;12.50;99.90;;;;;;5018054;28;20186;-77
2021/09/14 03:25:48;;;;;;;10.53;8.60;;;12.50;99.90;;;;;;5067666;22;20598;-78
2021/09/14 03:28:14;;;;;;;13.07;9.37;;;12.50;99.90;;;;;;4986027;28;20628;-78
2021/09/14 03:30:40;;;;;;;11.93;9.23;;;12.50;99.90;;;;;;5003210;28;20528;-77
2021/09/14 03:33:05;;;;;;;12.07;9.03;;;12.40;99.90;;;;;;4985240;28;20176;-77
2021/09/14 03:35:31;;;;;;;11.80;8.80;;;12.40;99.90;;;;;;4970492;28;20207;-78
2021/09/14 03:37:56;;;;;;;12.70;8.83;;;12.40;99.90;;;;;;4985678;28;20319;-78
2021/09/14 03:40:22;;;;;;;13.83;9.70;;;12.40;99.90;;;;;;4985709;28;20187;-78
2021/09/14 03:42:48;;;;;;;14.03;9.70;;;12.40;99.90;;;;;;4969181;28;20271;-76
2021/09/14 03:45:13;;;;;;;11.80;9.00;;;12.40;99.90;;;;;;5002076;28;20180;-78
2021/09/14 03:47:39;;;;;;;12.67;9.33;;;12.40;99.90;;;;;;4969544;28;20400;-78
2021/09/14 03:50:05;;;;;;;12.50;9.23;;;12.30;99.90;;;;;;4985745;28;20176;-77
2021/09/14 03:52:30;;;;;;;12.07;9.43;;;12.30;99.90;;;;;;4985093;28;20248;-77
2021/09/14 03:54:56;;;;;;;12.03;9.43;;;12.30;99.90;;;;;;4969432;28;20226;-78
2021/09/14 03:57:21;;;;;;;11.37;9.63;;;12.30;99.90;;;;;;5001164;28;20274;-77
2021/09/14 03:59:47;;;;;;;11.47;9.37;;;12.30;99.90;;;;;;4985708;28;20180;-77
2021/09/14 04:07:25;;;;;;;13.37;10.23;;;12.20;99.90;;;;;;4986065;28;20196;-78
2021/09/14 04:09:51;;;;;;;12.20;9.90;;;12.20;99.90;;;;;;4985491;28;20655;-77
2021/09/14 04:12:16;;;;;;;11.80;9.40;;;12.20;99.90;;;;;;4985648;28;20180;-77
2021/09/14 04:14:42;;;;;;;14.83;9.67;;;12.20;99.90;;;;;;4985540;28;20562;-78
2021/09/14 04:17:07;;;;;;;10.73;9.57;;;12.20;99.90;;;;;;4968773;28;20723;-78
2021/09/14 04:19:33;;;;;;;12.30;9.40;;;12.10;99.90;;;;;;4985424;28;20207;-78
2021/09/14 04:21:58;;;;;;;11.77;9.70;;;12.10;99.90;;;;;;4984843;28;20200;-78
2021/09/14 04:24:24;;;;;;;12.27;10.00;;;12.10;99.90;;;;;;4984651;28;20222;-78
2021/09/14 04:26:49;;;;;;;12.40;9.53;;;12.10;99.90;;;;;;5000675;28;20235;-77
2021/09/14 04:29:15;;;;;;;13.87;10.17;;;12.10;99.90;;;;;;4968892;28;20204;-77
2021/09/14 04:31:41;;;;;;;12.83;10.17;;;12.10;99.90;;;;;;4968650;28;20607;-77
2021/09/14 04:34:06;;;;;;;14.83;10.87;;;12.10;99.90;;;;;;4984693;28;20184;-77
2021/09/14 04:36:32;;;;;;;16.57;12.17;;;12.10;99.90;;;;;;4984820;28;20292;-78
2021/09/14 04:38:57;;;;;;;16.10;12.17;;;12.10;99.90;;;;;;4984678;28;20195;-77
2021/09/14 04:41:23;;;;;;;17.63;12.53;;;12.10;99.90;;;;;;5001407;28;20199;-78
2021/09/14 04:43:48;;;;;;;16.27;12.00;;;12.20;99.90;;;;;;4988001;28;20259;-78
2021/09/14 04:46:14;;;;;;;17.17;12.40;;;12.20;99.90;;;;;;5002905;28;20684;-77
2021/09/14 04:48:39;;;;;;;15.23;11.53;;;12.30;99.90;;;;;;5000994;28;20211;-78
2021/09/14 04:51:05;;;;;;;16.03;11.80;;;12.30;99.90;;;;;;4999374;28;20183;-78
2021/09/14 04:53:30;;;;;;;16.17;12.10;;;12.30;99.90;;;;;;4976639;28;20251;-77
2021/09/14 04:55:56;;;;;;;17.80;12.47;;;12.20;99.90;;;;;;4996971;28;20548;-78
2021/09/14 04:58:21;;;;;;;19.63;12.03;;;12.30;99.90;;;;;;4964441;28;20597;-78
2021/09/14 05:00:47;;;;;;;15.90;12.97;;;12.30;99.90;;;;;;4997237;28;20176;-77
2021/09/14 05:03:13;;;;;;;16.43;12.33;;;12.30;99.90;;;;;;4979823;28;20183;-78
2021/09/14 05:05:38;;;;;;;18.93;12.90;;;12.30;99.90;;;;;;4993654;28;20210;-77
2021/09/14 05:08:04;;;;;;;15.23;11.90;;;12.30;99.90;;;;;;4976330;28;20264;-77
2021/09/14 05:10:29;;;;;;;15.00;11.77;;;12.40;99.90;;;;;;4993836;28;20191;-77
2021/09/14 05:12:55;;;;;;;16.63;11.97;;;12.40;99.90;;;;;;4999461;28;20183;-77
2021/09/14 05:15:20;;;;;;;18.60;12.03;;;12.40;99.90;;;;;;4993970;28;20197;-77
2021/09/14 05:17:46;;;;;;;15.13;11.70;;;12.40;99.90;;;;;;5012001;28;20536;-77
2021/09/14 05:20:13;;;;;;;16.37;11.40;;;12.40;99.90;;;;;;5012808;28;20214;-81
2021/09/14 05:22:40;;;;;;;16.17;11.30;;;12.40;99.90;;;;;;4998938;28;20757;-79
2021/09/14 05:25:06;;;;;;;15.43;10.60;;;12.50;99.90;;;;;;4998206;28;20186;-79
2021/09/14 05:27:32;;;;;;;11.77;9.87;;;12.40;99.90;;;;;;4997644;28;20219;-79
2021/09/14 05:29:57;;;;;;;12.97;10.37;;;12.50;99.90;;;;;;4998400;28;20229;-79
2021/09/14 05:32:23;;;;;;;13.33;9.97;;;12.50;99.90;;;;;;4998435;28;20542;-79
2021/09/14 05:34:49;;;;;;;12.13;9.53;;;12.50;99.90;;;;;;4994941;28;20747;-79
2021/09/14 05:37:14;;;;;;;12.63;9.57;;;12.50;99.90;;;;;;4994332;28;20573;-78
2021/09/14 05:39:40;;;;;;;14.77;10.57;;;12.50;99.90;;;;;;4993850;28;20181;-80
2021/09/14 05:42:09;;;;;;;14.97;10.53;;;12.60;99.90;;;;;;4976936;28;20177;-78
2021/09/14 05:44:35;;;;;;;15.40;10.50;;;12.60;99.90;;;;;;4992319;28;20173;-77
2021/09/14 05:47:01;;;;;;;12.53;10.30;;;12.60;99.90;;;;;;4992129;28;20195;-77
2021/09/14 05:49:27;;;;;;;15.47;9.40;;;12.70;99.90;;;;;;4975816;28;20208;-77
2021/09/14 05:51:53;;;;;;;12.20;9.90;;;12.70;99.90;;;;;;4992224;28;20711;-78
2021/09/14 05:54:18;;;;;;;14.23;9.90;;;12.80;99.90;;;;;;4992314;28;20176;-77
2021/09/14 05:56:44;;;;;;;13.20;10.00;;;13.00;99.90;;;;;;4993159;28;20200;-78
2021/09/14 05:59:09;;;;;;;14.80;10.17;;;13.00;99.90;;;;;;4992016;28;20182;-77
2021/09/14 06:01:35;;;;;;;12.83;9.80;;;13.10;99.90;;;;;;4991905;28;20268;-77
2021/09/14 06:04:00;;;;;;;11.87;9.37;;;13.20;99.90;;;;;;4991775;28;20275;-74
2021/09/14 06:06:26;;;;;;;12.50;9.87;;;13.30;99.90;;;;;;4996465;28;20193;-80
2021/09/14 06:08:51;;;;;;;11.73;9.17;;;13.30;99.90;;;;;;4993325;28;20204;-79
2021/09/14 06:11:17;;;;;;;12.73;9.67;;;13.40;99.90;;;;;;4994284;28;20176;-78
2021/09/14 06:13:43;;;;;;;11.77;9.03;;;13.70;99.90;;;;;;4973407;28;20677;-77
2021/09/14 06:16:08;;;;;;;12.47;8.37;;;14.10;99.90;;;;;;4973553;28;20216;-79
2021/09/14 06:18:34;;;;;;;11.77;8.50;;;14.60;99.90;;;;;;4973630;28;20592;-79
2021/09/14 06:20:59;;;;;;;9.90;7.83;;;15.10;99.90;;;;;;4957817;28;20181;-79
2021/09/14 06:23:25;;;;;;;12.40;8.77;;;15.50;99.90;;;;;;4973774;28;20255;-78
2021/09/14 06:25:50;;;;;;;11.30;8.17;;;16.00;99.90;;;;;;4973903;28;20228;-78
2021/09/14 06:28:16;;;;;;;10.93;7.70;;;16.70;99.90;;;;;;4974009;28;20207;-79
2021/09/14 06:30:41;;;;;;;7.70;6.67;;;17.30;99.90;;;;;;4958129;28;20201;-82
2021/09/14 06:33:07;;;;;;;8.30;6.90;;;18.00;99.90;;;;;;4976894;28;20173;-81
2021/09/14 06:35:35;;;;;;;9.27;6.77;;;18.80;99.90;;;;;;4975749;28;20197;-78
2021/09/14 06:38:00;;;;;;;8.07;6.37;;;19.60;99.90;;;;;;4959413;28;20335;-79
2021/09/14 06:40:26;;;;;;;8.17;6.00;;;20.30;99.90;;;;;;4973028;28;20696;-78
2021/09/14 06:42:52;;;;;;;6.90;6.20;;;20.90;99.90;;;;;;4959457;28;20181;-77
2021/09/14 06:45:17;;;;;;;8.73;6.20;;;21.20;99.90;;;;;;4974864;28;20181;-77
2021/09/14 06:47:43;;;;;;;10.83;6.00;;;21.50;99.90;;;;;;4958185;28;20205;-80
2021/09/14 06:50:09;;;;;;;9.87;6.23;;;21.50;99.90;;;;;;4974623;28;20232;-77
2021/09/14 06:52:34;;;;;;;6.87;5.50;;;22.00;99.90;;;;;;4959161;28;20185;-79
2021/09/14 06:55:00;;;;;;;8.13;5.30;;;22.50;99.90;;;;;;4972661;28;20207;-78
2021/09/14 06:57:25;;;;;;;6.97;5.40;;;22.30;99.90;;;;;;4993694;28;20200;-78
2021/09/14 06:59:51;;;;;;;8.10;5.50;;;21.50;99.90;;;;;;4994323;28;20191;-78
2021/09/14 07:02:16;;;;;;;7.03;5.87;;;20.80;99.90;;;;;;4997045;28;20187;-82
2021/09/14 07:04:42;;;;;;;8.33;6.00;;;20.20;99.90;;;;;;4981803;28;20715;-82
2021/09/14 07:07:08;;;;;;;6.30;5.50;;;19.70;99.90;;;;;;4973385;28;20787;-82
2021/09/14 07:09:33;;;;;;;7.83;5.50;;;19.10;99.90;;;;;;4981638;28;20294;-82
2021/09/14 07:11:59;;;;;;;7.37;5.70;;;18.70;99.90;;;;;;4981492;28;20210;-82
2021/09/14 07:14:24;;;;;;;9.87;6.23;;;18.40;99.90;;;;;;4999294;28;20182;-82
2021/09/14 07:16:50;;;;;;;8.30;5.90;;;18.20;99.90;;;;;;5003131;28;20879;-82
2021/09/14 07:19:15;;;;;;;12.73;6.50;;;18.10;99.90;;;;;;4988295;28;20603;-82
2021/09/14 07:21:41;;;;;;;7.77;6.17;;;18.00;99.90;;;;;;4986909;28;20612;-83
2021/09/14 07:24:07;;;;;;;6.97;5.73;;;18.00;99.90;;;;;;4990793;28;20200;-83
2021/09/14 07:26:32;;;;;;;7.30;6.20;;;18.00;99.90;;;;;;4987669;28;20234;-84
2021/09/14 07:28:58;;;;;;;8.87;6.43;;;18.10;99.90;;;;;;4986436;28;20212;-83
2021/09/14 07:31:23;;;;;;;8.07;5.70;;;18.10;99.90;;;;;;4985339;28;20644;-83
2021/09/14 07:33:49;;;;;;;6.43;5.60;;;18.10;99.90;;;;;;4986634;28;20691;-83
2021/09/14 07:36:14;;;;;;;6.93;6.23;;;18.20;99.90;;;;;;4986114;28;20211;-83
2021/09/14 07:38:42;;;;;;;7.67;5.97;;;18.30;99.90;;;;;;4983951;28;20216;-82
2021/09/14 07:41:08;;;;;;;7.50;6.30;;;18.30;99.90;;;;;;4985900;28;20196;-83
2021/09/14 07:43:34;;;;;;;6.43;5.73;;;18.40;99.90;;;;;;4984260;28;20192;-82
2021/09/14 07:45:59;;;;;;;6.43;5.67;;;18.40;99.90;;;;;;4983889;28;20200;-82
2021/09/14 07:48:25;;;;;;;6.30;5.70;;;18.60;99.90;;;;;;4983058;28;20219;-83
2021/09/14 07:50:51;;;;;;;7.07;5.90;;;18.70;99.90;;;;;;4981892;28;20176;-82
2021/09/14 07:53:16;;;;;;;7.50;6.33;;;18.90;99.90;;;;;;4998899;28;20176;-83
2021/09/14 07:55:42;;;;;;;8.03;5.80;;;19.00;99.90;;;;;;4988307;28;20203;-82
2021/09/14 07:58:07;;;;;;;7.27;5.83;;;19.30;99.90;;;;;;4982918;28;20245;-80
2021/09/14 08:00:33;;;;;;;6.57;5.80;;;19.30;99.90;;;;;;4981413;28;20191;-81
2021/09/14 08:02:59;;;;;;;8.30;6.10;;;19.30;99.90;;;;;;4981021;28;20552;-80
2021/09/14 08:05:25;;;;;;;8.90;5.70;;;19.30;99.90;;;;;;4978921;28;20235;-76
2021/09/14 08:07:51;;;;;;;7.07;5.80;;;19.30;99.90;;;;;;4994164;28;20302;-76
2021/09/14 08:10:16;;;;;;;6.73;5.83;;;19.50;99.90;;;;;;4994025;28;20661;-76
2021/09/14 08:12:42;;;;;;;8.63;5.90;;;19.50;99.90;;;;;;4995175;28;20185;-76
2021/09/14 08:15:08;;;;;;;6.67;5.73;;;19.60;99.90;;;;;;4993757;28;20257;-76
2021/09/14 08:17:34;;;;;;;6.53;5.63;;;19.70;99.90;;;;;;4993534;28;20274;-76
2021/09/14 08:20:01;;;;;;;6.50;5.73;;;19.80;99.90;;;;;;4977328;28;20184;-77
2021/09/14 08:22:26;;;;;;;8.13;5.60;;;19.90;99.90;;;;;;4977667;28;20207;-77
2021/09/14 08:24:52;;;;;;;6.73;5.43;;;19.90;99.90;;;;;;4993506;28;20640;-78
2021/09/14 08:27:17;;;;;;;8.63;5.73;;;19.90;99.90;;;;;;4992291;28;20838;-77
2021/09/14 08:29:43;;;;;;;6.90;5.93;;;19.90;99.90;;;;;;4993504;28;20181;-77
2021/09/14 08:32:09;;;;;;;6.43;5.83;;;19.90;99.90;;;;;;4993460;28;20243;-77
2021/09/14 08:34:34;;;;;;;6.50;5.50;;;19.80;99.90;;;;;;4993388;28;20180;-77
2021/09/14 08:37:00;;;;;;;8.53;6.27;;;19.90;99.90;;;;;;4993255;28;20196;-77
2021/09/14 08:39:25;;;;;;;6.87;5.80;;;20.10;99.90;;;;;;4993166;28;20180;-77
2021/09/14 08:41:51;;;;;;;6.73;6.03;;;20.00;99.90;;;;;;4994519;28;20268;-77
2021/09/14 08:44:16;;;;;;;9.60;6.23;;;20.00;99.90;;;;;;4993226;28;20640;-77
2021/09/14 08:46:42;;;;;;;6.63;5.73;;;20.00;99.90;;;;;;4993160;28;20926;-77
2021/09/14 08:49:08;;;;;;;7.80;5.87;;;20.00;99.90;;;;;;4992976;28;20579;-76
2021/09/14 08:51:34;;;;;;;7.30;5.87;;;19.90;99.90;;;;;;4993178;28;20331;-77
2021/09/14 08:54:00;;;;;;;9.17;6.60;;;19.80;99.90;;;;;;4977213;28;20204;-77
2021/09/14 08:56:26;;;;;;;7.47;5.93;;;19.90;99.90;;;;;;4976695;28;20297;-77
2021/09/14 08:59:10;;;;;;;6.77;5.57;;;19.90;99.90;;;;;;4992705;28;20603;-77
2021/09/14 09:01:35;;;;;;;8.10;5.97;;;19.90;99.90;;;;;;4992587;28;20647;-77
2021/09/14 09:04:03;;;;;;;6.83;5.93;;;20.00;99.90;;;;;;4992920;28;20184;-76
2021/09/14 09:06:36;;;;;;;7.37;5.93;;;20.10;99.90;;;;;;4992839;28;20196;-76
2021/09/14 09:09:15;;;;;;;7.30;5.70;;;20.10;99.90;;;;;;4992328;28;20223;-76
2021/09/14 09:12:00;;;;;;;9.77;5.83;;;20.10;99.90;;;;;;4992828;28;20188;-76
2021/09/14 09:14:44;;;;;;;9.73;6.50;;;20.20;99.90;;;;;;4992473;28;20204;-76
2021/09/14 09:17:14;;;;;;;7.33;5.97;;;20.40;99.90;;;;;;4941111;28;20232;-77
2021/09/14 09:19:58;;;;;;;7.70;6.07;;;20.40;99.90;;;;;;4973324;28;20188;-76
2021/09/14 09:22:24;;;;;;;9.60;5.90;;;20.40;99.90;;;;;;4974532;28;20172;-77
2021/09/14 09:24:51;;;;;;;6.50;5.83;;;20.30;99.90;;;;;;4973140;28;20181;-77
2021/09/14 09:27:18;;;;;;;6.47;5.50;;;20.30;99.90;;;;;;4958555;28;20229;-77
2021/09/14 09:29:44;;;;;;;9.07;6.63;;;20.40;99.90;;;;;;4976331;28;20210;-77
2021/09/14 09:32:09;;;;;;;7.20;6.30;;;20.40;99.90;;;;;;4992559;28;20781;-77
2021/09/14 09:34:35;;;;;;;7.10;6.37;;;20.60;99.90;;;;;;4992428;28;20172;-78
2021/09/14 09:37:05;;;;;;;7.93;5.60;;;20.80;99.90;;;;;;4976121;28;20200;-77
2021/09/14 09:39:44;;;;;;;7.73;6.17;;;20.90;99.90;;;;;;4991990;28;20636;-77
2021/09/14 09:42:10;;;;;;;7.43;5.50;;;21.10;99.90;;;;;;4976461;28;20202;-78
2021/09/14 09:44:36;;;;;;;7.83;6.20;;;21.20;99.90;;;;;;4992170;28;20655;-77
2021/09/14 09:47:01;;;;;;;7.80;6.17;;;21.40;99.90;;;;;;4992176;28;20192;-78
2021/09/14 09:49:28;;;;;;;10.77;6.20;;;21.50;99.90;;;;;;4976776;28;20280;-78
2021/09/14 09:51:54;;;;;;;10.63;6.50;;;21.50;99.90;;;;;;4975913;28;20208;-78
2021/09/14 09:54:20;;;;;;;8.43;6.13;;;21.60;99.90;;;;;;4992528;28;20207;-77
2021/09/14 09:56:45;;;;;;;7.60;6.60;;;21.50;99.90;;;;;;4992713;28;20195;-78
2021/09/14 09:59:12;;;;;;;7.77;6.10;;;21.60;99.90;;;;;;4991836;28;20251;-78
2021/09/14 10:01:38;;;;;;;8.40;6.47;;;21.80;99.90;;;;;;4992165;28;20180;-78
2021/09/14 10:04:21;;;;;;;7.37;5.67;;;21.90;99.90;;;;;;4993871;28;20184;-79
2021/09/14 10:06:47;;;;;;;10.53;6.73;;;21.90;99.90;;;;;;4992745;28;20204;-78
2021/09/14 10:09:12;;;;;;;7.33;6.50;;;21.80;99.90;;;;;;4992412;28;20204;-77
2021/09/14 10:11:38;;;;;;;9.53;6.20;;;21.80;99.90;;;;;;4992005;28;20179;-77
2021/09/14 10:14:13;;;;;;;7.77;6.17;;;21.80;99.90;;;;;;4975746;28;20648;-77
2021/09/14 10:16:48;;;;;;;7.17;6.20;;;21.90;99.90;;;;;;4994719;28;20188;-80
2021/09/14 10:19:27;;;;;;;9.27;6.23;;;22.10;99.90;;;;;;4995637;28;20628;-80
2021/09/14 10:21:59;;;;;;;7.77;6.20;;;22.30;99.90;;;;;;4965910;28;20199;-80
2021/09/14 10:24:25;;;;;;;7.63;5.53;;;22.40;99.90;;;;;;4996209;28;20184;-80
2021/09/14 10:27:09;;;;;;;6.83;5.97;;;22.40;99.90;;;;;;4979017;28;20270;-80
2021/09/14 10:29:35;;;;;;;8.47;5.93;;;22.50;99.90;;;;;;4994706;28;20813;-80
2021/09/14 10:32:08;;;;;;;6.43;5.60;;;22.60;99.90;;;;;;4978475;28;20263;-80
2021/09/14 10:34:33;;;;;;;6.53;5.53;;;22.60;99.90;;;;;;4994966;28;20274;-80
2021/09/14 10:37:01;;;;;;;7.30;5.57;;;22.70;99.90;;;;;;4994543;28;20196;-80
2021/09/14 10:39:27;;;;;;;7.47;5.15;;;22.80;99.90;;;;;;4978971;28;20192;-80
2021/09/14 10:41:52;;;;;;;7.10;5.73;;;22.70;99.90;;;;;;4978546;28;20182;-80
2021/09/14 10:44:24;;;;;;;9.17;5.40;;;22.80;99.90;;;;;;4978571;28;20235;-80
2021/09/14 10:46:50;;;;;;;9.40;5.35;;;22.80;99.90;;;;;;4996355;28;20224;-80
2021/09/14 10:49:15;;;;;;;7.67;5.87;;;23.00;99.90;;;;;;4978329;28;20706;-80
2021/09/14 10:51:52;;;;;;;5.17;4.47;;;23.10;99.90;;;;;;4997394;28;20632;-80
2021/09/14 10:54:19;;;;;;;7.73;5.20;;;23.30;99.90;;;;;;4998823;28;20180;-80
2021/09/14 10:56:47;;;;;;;6.33;4.87;;;23.40;99.90;;;;;;4998475;28;20196;-80
2021/09/14 10:59:17;;;;;;;6.70;4.93;;;23.50;99.90;;;;;;4982583;28;20203;-80
2021/09/14 11:01:42;;;;;;;6.40;4.53;;;23.50;99.90;;;;;;4998162;28;20190;-80
2021/09/14 11:04:08;;;;;;;6.87;4.57;;;23.50;99.90;;;;;;4998735;28;20180;-80
2021/09/14 11:06:33;;;;;;;6.77;4.57;;;23.50;99.90;;;;;;4981791;28;20316;-80
2021/09/14 11:09:00;;;;;;;6.20;4.93;;;23.60;99.90;;;;;;4997989;28;20737;-80
2021/09/14 11:11:25;;;;;;;5.63;4.23;;;23.60;99.90;;;;;;4998222;28;20200;-80
2021/09/14 11:13:51;;;;;;;7.90;4.65;;;23.70;99.90;;;;;;4981601;28;20176;-80
2021/09/14 11:16:17;;;;;;;7.33;4.90;;;24.00;99.90;;;;;;4997989;28;20220;-80
2021/09/14 11:18:44;;;;;;;10.47;4.90;;;24.00;99.90;;;;;;4997984;28;20176;-80
2021/09/14 11:21:14;;;;;;;6.65;4.90;;;24.00;99.90;;;;;;4997985;28;20180;-80
2021/09/14 11:23:41;;;;;;;6.00;4.10;;;24.00;99.90;;;;;;4997407;28;20177;-80
2021/09/14 11:26:08;;;;;;;10.80;5.30;;;23.90;99.90;;;;;;4998057;28;20215;-80
2021/09/14 11:28:34;;;;;;;7.65;5.03;;;24.10;99.90;;;;;;4981554;28;20215;-80
2021/09/14 11:31:02;;;;;;;6.87;4.10;;;24.10;99.90;;;;;;4998255;28;20318;-80
2021/09/14 11:33:28;;;;;;;6.25;4.10;;;24.00;99.90;;;;;;4982152;28;20188;-79
2021/09/14 11:36:00;;;;;;;9.10;4.47;;;24.10;99.90;;;;;;4998041;28;20199;-79
2021/09/14 11:38:26;;;;;;;5.67;3.83;;;24.20;99.90;;;;;;4981664;28;20176;-78
2021/09/14 11:40:53;;;;;;;6.40;4.05;;;24.20;99.90;;;;;;4968314;28;20275;-77
2021/09/14 11:43:24;;;;;;;6.47;4.15;;;24.20;99.90;;;;;;4997649;28;20261;-77
2021/09/14 11:45:50;;;;;;;7.87;4.40;;;24.30;99.90;;;;;;4997831;28;20265;-77
2021/09/14 11:48:23;;;;;;;5.93;3.90;;;24.30;99.90;;;;;;4979940;28;20690;-81
2021/09/14 11:51:01;;;;;;;5.20;4.20;;;24.30;99.90;;;;;;4998622;28;20185;-81
2021/09/14 11:53:27;;;;;;;6.60;4.17;;;24.40;99.90;;;;;;4976015;28;20172;-82
2021/09/14 11:55:52;;;;;;;5.03;4.28;;;24.50;99.90;;;;;;4983955;28;20202;-81
2021/09/14 11:58:29;;;;;;;7.05;4.22;;;24.60;99.90;;;;;;4984275;28;20194;-82
2021/09/14 12:00:55;;;;;;;5.67;4.50;;;24.60;99.90;;;;;;4967541;28;20188;-81
2021/09/14 12:03:21;;;;;;;5.30;4.17;;;24.70;99.90;;;;;;4981399;28;20195;-82
2021/09/14 12:05:57;;;;;;;4.78;4.00;;;24.80;99.90;;;;;;4999981;28;20290;-82
2021/09/14 12:08:30;;;;;;;4.73;4.00;;;24.80;99.90;;;;;;5000281;28;20207;-82
2021/09/14 12:10:55;;;;;;;5.20;4.40;;;24.90;99.90;;;;;;4984148;28;20180;-82
2021/09/14 12:13:21;;;;;;;6.53;4.90;;;24.90;99.90;;;;;;5000184;28;20538;-82
2021/09/14 12:15:47;;;;;;;6.45;3.70;;;24.80;99.90;;;;;;4984527;28;20230;-82
2021/09/14 12:18:15;;;;;;;5.00;4.38;;;24.90;99.90;;;;;;4984238;28;20187;-82
2021/09/14 12:20:42;;;;;;;7.07;4.60;;;25.00;99.90;;;;;;5016638;28;20182;-82
2021/09/14 12:23:08;;;;;;;4.32;3.60;;;24.90;99.90;;;;;;4981187;28;20184;-82
2021/09/14 12:25:33;;;;;;;6.75;3.72;;;24.80;99.90;;;;;;4998283;28;20210;-82
2021/09/14 12:27:59;;;;;;;5.15;4.57;;;24.80;99.90;;;;;;4988449;28;20222;-82
2021/09/14 12:30:24;;;;;;;6.68;4.38;;;24.90;99.90;;;;;;5017077;28;20183;-82
2021/09/14 12:32:50;;;;;;;4.97;3.40;;;24.90;99.90;;;;;;5001551;28;20179;-82
2021/09/14 12:35:15;;;;;;;5.97;4.45;;;25.00;99.90;;;;;;5003292;28;20179;-82
2021/09/14 12:37:41;;;;;;;5.13;3.80;;;25.00;99.90;;;;;;4983865;28;20180;-82
2021/09/14 12:40:07;;;;;;;5.40;3.67;;;24.90;99.90;;;;;;5015828;28;20183;-82
2021/09/14 12:42:33;;;;;;;5.47;3.58;;;24.90;99.90;;;;;;4993760;28;20189;-83
2021/09/14 12:44:59;;;;;;;5.43;4.25;;;25.00;99.90;;;;;;4978302;28;20199;-82
2021/09/14 12:47:25;;;;;;;4.97;4.05;;;25.00;99.90;;;;;;4994306;28;20196;-82
2021/09/14 12:49:50;;;;;;;4.13;3.53;;;24.90;99.90;;;;;;4981056;28;20618;-84
2021/09/14 12:52:16;;;;;;;6.25;4.60;;;24.80;99.90;;;;;;4966183;28;20211;-83
2021/09/14 12:54:41;;;;;;;5.90;3.92;;;24.80;99.90;;;;;;4965774;28;20177;-83
2021/09/14 12:57:07;;;;;;;4.43;3.90;;;24.70;99.90;;;;;;4982355;28;20251;-81
2021/09/14 12:59:32;;;;;;;4.13;3.72;;;24.80;99.90;;;;;;5000900;28;20176;-82
2021/09/14 13:01:58;;;;;;;4.05;3.60;;;24.80;99.90;;;;;;4984830;28;20191;-82
2021/09/14 13:04:24;;;;;;;5.78;4.22;;;25.00;99.90;;;;;;5001756;28;20180;-82
2021/09/14 13:06:50;;;;;;;6.50;3.80;;;25.00;99.90;;;;;;5002297;28;20191;-83
2021/09/14 13:09:15;;;;;;;4.97;4.03;;;25.10;99.90;;;;;;5003803;28;20219;-83
2021/09/14 13:11:41;;;;;;;3.40;3.10;;;25.10;99.90;;;;;;4988824;28;20176;-82
2021/09/14 13:16:51;;;;;;;5.07;4.05;;;25.20;99.90;;;;;;5000873;28;20235;-82
2021/09/14 13:19:16;;;;;;;4.47;3.90;;;25.20;99.90;;;;;;4969888;28;20562;-82
2021/09/14 13:21:42;;;;;;;6.63;4.35;;;25.20;99.90;;;;;;4984729;28;20184;-81
2021/09/14 13:24:07;;;;;;;4.50;4.10;;;25.20;99.90;;;;;;4984905;28;20179;-79
2021/09/14 13:26:33;;;;;;;6.45;4.15;;;25.20;99.90;;;;;;4982694;28;20601;-81
2021/09/14 13:28:58;;;;;;;5.53;4.93;;;25.30;99.90;;;;;;4982053;28;20216;-83
2021/09/14 13:31:24;;;;;;;4.97;4.20;;;25.30;99.90;;;;;;4997940;28;20187;-83
2021/09/14 13:33:49;;;;;;;6.22;4.00;;;25.40;99.90;;;;;;4983435;28;20263;-82
2021/09/14 13:36:15;;;;;;;4.53;3.17;;;25.30;99.90;;;;;;4982074;28;20207;-81
2021/09/14 13:38:41;;;;;;;5.60;3.20;;;25.30;99.90;;;;;;4986151;28;20237;-82
2021/09/14 13:41:11;;;;;;;5.43;3.80;;;25.30;99.90;;;;;;4991371;28;20648;-81